Time;durP1;ratioP1;P1;durP2;ratioP2;P2;SDS_P1;SDS_P2;PMS_P1;PMS_P2;Temp;Humidity;BMP_temperature;BMP_pressure;BME280_temperature;BME280_humidity;BME280_pressure;Samples;Min_cycle;Max_cycle;Signal;HPM_P1;HPM_P2
2023/09/10 00:00:24;;;;;;;26.05;20.95;;;17.30;99.90;;;;;;2084920;28;20028;-78
2023/09/10 00:01:24;;;;;;;25.00;20.92;;;17.30;99.90;;;;;;2091497;28;20025;-79
2023/09/10 00:02:25;;;;;;;23.42;20.65;;;17.30;99.90;;;;;;2086987;28;20035;-78
2023/09/10 00:03:26;;;;;;;24.80;20.55;;;17.30;99.90;;;;;;2088012;28;20036;-78
2023/09/10 00:04:26;;;;;;;23.85;20.33;;;17.30;99.90;;;;;;2089853;28;20051;-78
2023/09/10 00:05:27;;;;;;;25.98;20.73;;;17.30;99.90;;;;;;2090692;28;20406;-79
2023/09/10 00:06:28;;;;;;;22.88;20.38;;;17.30;99.90;;;;;;2085238;28;20057;-79
2023/09/10 00:07:28;;;;;;;24.27;20.23;;;17.20;99.90;;;;;;2088097;28;20031;-79
2023/09/10 00:08:29;;;;;;;25.05;20.60;;;17.20;99.90;;;;;;2091777;28;20107;-79
2023/09/10 00:09:30;;;;;;;26.98;20.65;;;17.20;99.90;;;;;;2088967;28;20072;-80
2023/09/10 00:10:30;;;;;;;28.13;20.33;;;17.20;99.90;;;;;;2093750;28;20021;-78
2023/09/10 00:11:31;;;;;;;24.52;19.92;;;17.20;99.90;;;;;;2091332;28;20035;-79
2023/09/10 00:12:31;;;;;;;25.70;20.13;;;17.20;99.90;;;;;;2086142;28;20060;-79
2023/09/10 00:13:32;;;;;;;25.92;21.15;;;17.20;99.90;;;;;;2094017;28;20013;-80
2023/09/10 00:14:33;;;;;;;23.10;19.98;;;17.10;99.90;;;;;;2093141;28;20511;-79
2023/09/10 00:15:34;;;;;;;23.10;19.90;;;17.10;99.90;;;;;;2088812;28;20028;-78
2023/09/10 00:16:34;;;;;;;25.58;19.88;;;17.10;99.90;;;;;;2084148;28;20108;-79
2023/09/10 00:17:35;;;;;;;23.27;19.83;;;17.10;99.90;;;;;;2084714;28;20025;-78
2023/09/10 00:18:36;;;;;;;23.73;19.92;;;17.10;99.90;;;;;;2080064;28;20037;-78
2023/09/10 00:19:36;;;;;;;23.80;19.33;;;17.10;99.90;;;;;;2080706;28;20483;-80
2023/09/10 00:20:37;;;;;;;23.23;19.27;;;17.10;99.90;;;;;;2091970;28;20028;-79
2023/09/10 00:21:38;;;;;;;23.40;18.73;;;17.10;99.90;;;;;;2088844;28;20031;-78
2023/09/10 00:22:40;;;;;;;22.85;19.65;;;17.10;99.90;;;;;;2084814;28;20083;-78
2023/09/10 00:23:40;;;;;;;22.00;19.48;;;17.10;99.90;;;;;;2096047;28;20028;-78
2023/09/10 00:24:41;;;;;;;21.88;19.33;;;17.00;99.90;;;;;;2096768;28;20043;-78
2023/09/10 00:25:41;;;;;;;22.55;19.38;;;17.00;99.90;;;;;;2092273;28;20074;-80
2023/09/10 00:26:42;;;;;;;23.23;19.23;;;17.10;99.90;;;;;;2086308;28;20530;-79
2023/09/10 00:27:42;;;;;;;21.85;19.45;;;17.00;99.90;;;;;;2090658;28;20029;-78
2023/09/10 00:28:44;;;;;;;21.75;18.95;;;17.00;99.90;;;;;;2093266;28;20039;-78
2023/09/10 00:29:45;;;;;;;23.20;19.27;;;17.00;99.90;;;;;;2088963;28;20597;-79
2023/09/10 00:30:52;;;;;;;24.67;20.25;;;17.00;99.90;;;;;;2076161;28;20021;-79
2023/09/10 00:31:53;;;;;;;23.67;19.67;;;17.00;99.90;;;;;;2085492;28;20098;-76
2023/09/10 00:32:54;;;;;;;26.13;19.60;;;17.00;99.90;;;;;;2085053;28;20033;-78
2023/09/10 00:33:54;;;;;;;26.02;19.25;;;17.00;99.90;;;;;;2084129;28;20872;-78
2023/09/10 00:34:55;;;;;;;21.48;19.00;;;17.00;99.90;;;;;;2092923;28;20090;-78
2023/09/10 00:35:56;;;;;;;22.13;19.13;;;16.90;99.90;;;;;;2095751;28;20092;-78
2023/09/10 00:36:57;;;;;;;22.52;19.73;;;16.90;99.90;;;;;;2086772;28;20016;-77
2023/09/10 00:37:58;;;;;;;21.42;18.60;;;16.90;99.90;;;;;;2096471;28;20514;-79
2023/09/10 00:38:58;;;;;;;22.45;19.02;;;17.00;99.90;;;;;;2092153;28;20032;-79
2023/09/10 00:39:59;;;;;;;22.20;19.08;;;17.00;99.90;;;;;;2088830;28;20055;-79
2023/09/10 00:41:00;;;;;;;23.52;19.10;;;17.00;99.90;;;;;;2089216;28;20055;-79
2023/09/10 00:42:00;;;;;;;22.13;19.23;;;17.00;99.90;;;;;;2092206;28;20031;-80
2023/09/10 00:43:01;;;;;;;22.10;18.67;;;17.00;99.90;;;;;;2094464;28;20024;-73
2023/09/10 00:44:02;;;;;;;23.85;18.77;;;16.90;99.90;;;;;;2093893;28;20047;-72
2023/09/10 00:45:07;;;;;;;21.77;19.05;;;16.90;99.90;;;;;;2084933;28;20025;-79
2023/09/10 00:46:08;;;;;;;22.67;19.33;;;16.90;99.90;;;;;;2077288;28;20037;-74
2023/09/10 00:47:10;;;;;;;24.27;18.40;;;16.90;99.90;;;;;;2085610;28;20033;-78
2023/09/10 00:48:10;;;;;;;24.23;19.33;;;16.90;99.90;;;;;;2084458;28;20120;-79
2023/09/10 00:49:11;;;;;;;22.92;19.60;;;16.90;99.90;;;;;;2084220;28;20036;-79
2023/09/10 00:50:16;;;;;;;23.00;18.58;;;16.90;99.90;;;;;;2093273;28;20093;-80
2023/09/10 00:51:17;;;;;;;23.52;19.05;;;16.90;99.90;;;;;;2087619;28;20044;-79
2023/09/10 00:52:18;;;;;;;22.20;18.38;;;16.90;99.90;;;;;;2088802;28;20054;-80
2023/09/10 00:53:21;;;;;;;22.02;18.85;;;16.90;99.90;;;;;;2086629;28;20021;-79
2023/09/10 00:54:24;;;;;;;22.02;18.88;;;16.90;99.90;;;;;;2085857;28;20131;-80
2023/09/10 00:55:29;;;;;;;23.63;18.95;;;16.80;99.90;;;;;;2084097;28;20021;-78
2023/09/10 00:56:29;;;;;;;21.60;18.92;;;16.80;99.90;;;;;;2090850;28;20130;-79
2023/09/10 00:57:31;;;;;;;22.83;18.92;;;16.90;99.90;;;;;;2091001;28;20039;-74
2023/09/10 00:58:32;;;;;;;22.85;18.98;;;16.80;99.90;;;;;;2073606;28;20033;-74
2023/09/10 00:59:33;;;;;;;21.45;18.20;;;16.80;99.90;;;;;;2094707;28;20029;-74
2023/09/10 01:00:34;;;;;;;24.10;19.10;;;16.80;99.90;;;;;;2086938;28;20051;-73
2023/09/10 01:01:36;;;;;;;24.02;18.20;;;16.80;99.90;;;;;;2080164;28;20135;-73
2023/09/10 01:02:39;;;;;;;20.45;18.25;;;16.80;99.90;;;;;;2079362;28;20021;-74
2023/09/10 01:03:40;;;;;;;21.90;18.55;;;16.80;99.90;;;;;;2082890;28;20022;-74
2023/09/10 01:04:41;;;;;;;21.20;17.40;;;16.80;99.90;;;;;;2084495;28;20033;-75
2023/09/10 01:05:42;;;;;;;22.23;18.33;;;16.80;99.90;;;;;;2085936;28;20029;-74
2023/09/10 01:06:42;;;;;;;22.45;17.90;;;16.80;99.90;;;;;;2096063;28;20490;-74
2023/09/10 01:07:44;;;;;;;22.52;18.25;;;16.80;99.90;;;;;;2095355;28;20048;-74
2023/09/10 01:08:46;;;;;;;22.75;19.35;;;16.80;99.90;;;;;;2090497;28;20032;-76
2023/09/10 01:09:47;;;;;;;20.70;18.27;;;16.80;99.90;;;;;;2092329;28;20040;-75
2023/09/10 01:11:49;;;;;;;21.65;18.27;;;16.80;99.90;;;;;;2095884;28;20469;-74
2023/09/10 01:13:09;;;;;;;24.38;19.13;;;16.80;99.90;;;;;;2078394;28;20029;-73
2023/09/10 01:14:17;;;;;;;22.20;18.10;;;16.80;99.90;;;;;;2087422;28;20040;-75
2023/09/10 01:15:37;;;;;;;20.95;18.10;;;16.80;99.90;;;;;;2076700;28;20423;-75
2023/09/10 01:16:47;;;;;;;22.27;17.70;;;16.80;99.90;;;;;;2087647;28;20033;-74
2023/09/10 01:18:08;;;;;;;22.33;18.35;;;16.80;99.90;;;;;;2089387;28;20655;-75
2023/09/10 01:19:27;;;;;;;23.77;19.63;;;16.80;99.90;;;;;;2095748;28;20483;-74
2023/09/10 01:20:33;;;;;;;20.92;18.55;;;16.80;99.90;;;;;;2090518;28;20115;-73
2023/09/10 01:22:05;;;;;;;23.00;18.10;;;16.80;99.90;;;;;;2089862;28;20042;-74
2023/09/10 01:23:24;;;;;;;23.42;18.80;;;16.80;99.90;;;;;;2072937;28;20081;-74
2023/09/10 01:24:48;;;;;;;23.30;19.30;;;16.80;99.90;;;;;;2077824;28;20112;-74
2023/09/10 01:25:49;;;;;;;25.20;19.63;;;16.80;99.90;;;;;;2083676;28;20040;-73
2023/09/10 01:26:54;;;;;;;24.23;19.30;;;16.70;99.90;;;;;;2085730;28;20123;-74
2023/09/10 01:27:55;;;;;;;25.52;20.25;;;16.80;99.90;;;;;;2072677;28;20120;-74
2023/09/10 01:28:55;;;;;;;26.38;20.17;;;16.70;99.90;;;;;;2081332;28;20080;-74
2023/09/10 01:29:56;;;;;;;25.73;19.73;;;16.80;99.90;;;;;;2094045;28;20415;-74
2023/09/10 01:30:57;;;;;;;27.63;20.13;;;16.80;99.90;;;;;;2088773;28;20549;-74
2023/09/10 01:32:00;;;;;;;25.02;20.45;;;16.80;99.90;;;;;;2086555;28;20025;-74
2023/09/10 01:33:11;;;;;;;26.08;20.50;;;16.70;99.90;;;;;;2086339;28;20049;-74
2023/09/10 01:34:15;;;;;;;26.55;20.98;;;16.80;99.90;;;;;;2081449;28;20048;-75
2023/09/10 01:35:21;;;;;;;27.75;20.92;;;16.80;99.90;;;;;;2083651;28;20033;-76
2023/09/10 01:36:38;;;;;;;28.42;20.58;;;16.80;99.90;;;;;;2090558;28;20039;-74
2023/09/10 01:37:45;;;;;;;27.42;21.38;;;16.80;99.90;;;;;;2088189;28;20581;-74
2023/09/10 01:39:12;;;;;;;26.50;20.05;;;16.70;99.90;;;;;;2086941;28;20017;-74
2023/09/10 01:40:19;;;;;;;30.30;21.75;;;16.70;99.90;;;;;;2089163;28;20631;-74
2023/09/10 01:41:21;;;;;;;26.67;20.95;;;16.70;99.90;;;;;;2093918;28;20032;-74
2023/09/10 01:42:23;;;;;;;27.38;21.40;;;16.70;99.90;;;;;;2087796;28;20037;-74
2023/09/10 01:43:24;;;;;;;25.60;21.08;;;16.70;99.90;;;;;;2094728;28;20036;-75
2023/09/10 01:44:25;;;;;;;27.30;20.77;;;16.70;99.90;;;;;;2096353;28;20115;-74
2023/09/10 01:45:27;;;;;;;28.55;20.90;;;16.60;99.90;;;;;;2094705;28;20073;-74
2023/09/10 01:46:29;;;;;;;26.95;20.75;;;16.60;99.90;;;;;;2090688;28;20074;-73
2023/09/10 01:47:29;;;;;;;26.35;21.27;;;16.60;99.90;;;;;;2091326;28;20021;-74
2023/09/10 01:48:30;;;;;;;25.95;20.58;;;16.60;99.90;;;;;;2089037;28;20050;-74
2023/09/10 01:49:31;;;;;;;24.83;20.63;;;16.60;99.90;;;;;;2076413;28;20416;-74
2023/09/10 01:50:32;;;;;;;27.20;21.25;;;16.60;99.90;;;;;;2080761;28;20747;-74
2023/09/10 01:51:33;;;;;;;24.65;20.45;;;16.60;99.90;;;;;;2092145;28;20027;-75
2023/09/10 01:52:34;;;;;;;25.58;21.27;;;16.60;99.90;;;;;;2083659;28;20533;-75
2023/09/10 01:53:34;;;;;;;27.98;22.35;;;16.60;99.90;;;;;;2082681;28;20562;-75
2023/09/10 01:54:35;;;;;;;25.63;20.83;;;16.60;99.90;;;;;;2090844;28;20016;-76
2023/09/10 01:55:35;;;;;;;31.55;22.40;;;16.50;99.90;;;;;;2084157;28;20063;-75
2023/09/10 01:56:36;;;;;;;28.13;22.48;;;16.50;99.90;;;;;;2086252;28;20027;-75
2023/09/10 01:57:36;;;;;;;25.88;21.90;;;16.50;99.90;;;;;;2083759;28;20123;-75
2023/09/10 01:58:39;;;;;;;27.70;21.65;;;16.50;99.90;;;;;;2075119;28;20025;-74
2023/09/10 01:59:40;;;;;;;27.30;20.98;;;16.50;99.90;;;;;;2067445;28;20030;-75
2023/09/10 02:00:41;;;;;;;28.48;20.95;;;16.50;99.90;;;;;;2082685;28;20029;-74
2023/09/10 02:01:42;;;;;;;26.98;22.15;;;16.50;99.90;;;;;;2083923;28;20043;-75
2023/09/10 02:02:42;;;;;;;25.55;21.20;;;16.50;99.90;;;;;;2087534;28;20060;-74
2023/09/10 02:03:43;;;;;;;27.70;21.27;;;16.50;99.90;;;;;;2088052;28;20539;-75
2023/09/10 02:04:43;;;;;;;26.10;21.52;;;16.40;99.90;;;;;;2083469;28;20579;-74
2023/09/10 02:05:44;;;;;;;27.48;20.88;;;16.40;99.90;;;;;;2083227;28;20395;-75
2023/09/10 02:06:45;;;;;;;25.95;20.88;;;16.40;99.90;;;;;;2076344;28;20060;-75
2023/09/10 02:07:45;;;;;;;30.35;21.13;;;16.40;99.90;;;;;;2087271;28;20043;-75
2023/09/10 02:08:46;;;;;;;27.98;21.65;;;16.40;99.90;;;;;;2090431;28;20020;-75
2023/09/10 02:09:46;;;;;;;27.23;22.85;;;16.40;99.90;;;;;;2080127;28;20041;-75
2023/09/10 02:10:47;;;;;;;33.60;23.90;;;16.40;99.90;;;;;;2089549;28;20051;-75
2023/09/10 02:11:47;;;;;;;33.10;23.02;;;16.40;99.90;;;;;;2092131;28;20477;-75
2023/09/10 02:12:48;;;;;;;29.75;23.15;;;16.40;99.90;;;;;;2085967;28;20024;-75
2023/09/10 02:13:49;;;;;;;30.55;22.10;;;16.40;99.90;;;;;;2089779;28;20095;-75
2023/09/10 02:14:49;;;;;;;30.88;23.08;;;16.40;99.90;;;;;;2088303;28;20123;-75
2023/09/10 02:15:50;;;;;;;31.23;22.52;;;16.40;99.90;;;;;;2080884;28;20086;-74
2023/09/10 02:16:51;;;;;;;33.15;23.67;;;16.40;99.90;;;;;;2081609;28;20502;-75
2023/09/10 02:17:55;;;;;;;30.13;22.77;;;16.40;99.90;;;;;;2082636;28;20098;-75
2023/09/10 02:18:55;;;;;;;29.35;22.55;;;16.40;99.90;;;;;;2083689;28;20035;-75
2023/09/10 02:19:56;;;;;;;29.40;22.55;;;16.40;99.90;;;;;;2070595;28;20509;-75
2023/09/10 02:20:57;;;;;;;28.40;21.73;;;16.40;99.90;;;;;;2083173;28;20059;-74
2023/09/10 02:21:58;;;;;;;25.85;21.67;;;16.40;99.90;;;;;;2083575;28;20110;-74
2023/09/10 02:22:58;;;;;;;26.80;22.30;;;16.40;99.90;;;;;;2092180;28;20107;-74
2023/09/10 02:24:00;;;;;;;31.15;22.67;;;16.40;99.90;;;;;;2086208;28;20032;-73
2023/09/10 02:25:03;;;;;;;28.48;22.67;;;16.40;99.90;;;;;;2082606;28;20026;-74
2023/09/10 02:26:03;;;;;;;30.35;21.98;;;16.40;99.90;;;;;;2077108;28;20037;-74
2023/09/10 02:27:04;;;;;;;27.88;22.02;;;16.30;99.90;;;;;;2083941;28;20099;-74
2023/09/10 02:28:05;;;;;;;29.10;21.55;;;16.30;99.90;;;;;;2092059;28;20594;-75
2023/09/10 02:29:06;;;;;;;27.85;21.63;;;16.30;99.90;;;;;;2083206;28;20047;-74
2023/09/10 02:30:09;;;;;;;27.50;22.13;;;16.30;99.90;;;;;;2075051;28;20581;-74
2023/09/10 02:31:10;;;;;;;32.58;22.08;;;16.30;99.90;;;;;;2091694;28;20033;-73
2023/09/10 02:32:11;;;;;;;28.70;22.00;;;16.30;99.90;;;;;;2088011;28;20055;-73
2023/09/10 02:33:11;;;;;;;27.98;21.13;;;16.30;99.90;;;;;;2091300;28;20063;-73
2023/09/10 02:34:12;;;;;;;27.02;21.90;;;16.30;99.90;;;;;;2091873;28;20042;-73
2023/09/10 02:35:12;;;;;;;26.67;21.42;;;16.30;99.90;;;;;;2094982;28;20028;-74
2023/09/10 02:36:13;;;;;;;26.33;20.50;;;16.30;99.90;;;;;;2075296;28;20709;-74
2023/09/10 02:37:14;;;;;;;26.75;21.25;;;16.20;99.90;;;;;;2090562;28;20087;-74
2023/09/10 02:38:15;;;;;;;26.70;20.73;;;16.20;99.90;;;;;;2090942;28;20399;-73
2023/09/10 02:39:15;;;;;;;23.55;19.60;;;16.20;99.90;;;;;;2075638;28;20041;-74
2023/09/10 02:40:16;;;;;;;27.15;20.10;;;16.20;99.90;;;;;;2090103;28;20782;-74
2023/09/10 02:41:16;;;;;;;24.67;19.63;;;16.20;99.90;;;;;;2093903;28;20058;-73
2023/09/10 02:42:17;;;;;;;25.88;19.75;;;16.20;99.90;;;;;;2091774;28;20487;-75
2023/09/10 02:43:18;;;;;;;26.58;19.63;;;16.20;99.90;;;;;;2080794;28;20130;-73
2023/09/10 02:44:18;;;;;;;25.17;19.83;;;16.20;99.90;;;;;;2091097;28;20058;-74
2023/09/10 02:45:19;;;;;;;24.33;19.65;;;16.20;99.90;;;;;;2087408;28;20024;-74
2023/09/10 02:46:20;;;;;;;25.77;19.45;;;16.20;99.90;;;;;;2077099;28;20100;-73
2023/09/10 02:47:20;;;;;;;22.27;19.10;;;16.10;99.90;;;;;;2080458;28;20039;-73
2023/09/10 02:48:21;;;;;;;24.58;19.38;;;16.10;99.90;;;;;;2090951;28;20028;-73
2023/09/10 02:49:21;;;;;;;24.40;19.40;;;16.10;99.90;;;;;;2086595;28;20044;-74
2023/09/10 02:50:22;;;;;;;22.35;19.13;;;16.10;99.90;;;;;;2088652;28;20017;-74
2023/09/10 02:51:23;;;;;;;21.38;18.42;;;16.10;99.90;;;;;;2090834;28;20173;-75
2023/09/10 02:52:24;;;;;;;25.15;19.38;;;16.10;99.90;;;;;;2086408;28;20024;-73
2023/09/10 02:53:25;;;;;;;27.10;19.25;;;16.10;99.90;;;;;;2078937;28;20162;-73
2023/09/10 02:54:25;;;;;;;23.17;18.88;;;16.10;99.90;;;;;;2092965;28;20028;-73
2023/09/10 02:55:26;;;;;;;22.35;18.67;;;16.10;99.90;;;;;;2087824;28;20085;-74
2023/09/10 02:56:26;;;;;;;22.35;18.60;;;16.10;99.90;;;;;;2086807;28;20472;-74
2023/09/10 02:57:27;;;;;;;22.80;18.63;;;16.10;99.90;;;;;;2090485;28;20023;-74
2023/09/10 02:58:29;;;;;;;21.45;18.40;;;16.10;99.90;;;;;;2085515;28;20120;-73
2023/09/10 02:59:29;;;;;;;22.10;18.30;;;16.10;99.90;;;;;;2077799;28;20524;-76
2023/09/10 03:00:30;;;;;;;23.73;18.60;;;16.10;99.90;;;;;;2084978;28;20028;-75
2023/09/10 03:01:31;;;;;;;23.85;18.17;;;16.10;99.90;;;;;;2084003;28;20025;-75
2023/09/10 03:02:31;;;;;;;23.27;18.08;;;16.10;99.90;;;;;;2087152;28;20029;-75
2023/09/10 03:03:33;;;;;;;22.42;18.45;;;16.10;99.90;;;;;;2083741;28;20637;-75
2023/09/10 03:04:33;;;;;;;22.17;18.30;;;16.10;99.90;;;;;;2083767;28;20078;-75
2023/09/10 03:05:34;;;;;;;22.98;18.45;;;16.10;99.90;;;;;;2075332;28;20642;-75
2023/09/10 03:06:35;;;;;;;21.73;18.17;;;16.10;99.90;;;;;;2082564;28;20048;-76
2023/09/10 03:07:36;;;;;;;20.25;17.65;;;16.00;99.90;;;;;;2089112;28;20538;-75
2023/09/10 03:08:36;;;;;;;21.70;18.20;;;16.00;99.90;;;;;;2084017;28;20036;-75
2023/09/10 03:09:37;;;;;;;22.15;17.98;;;16.00;99.90;;;;;;2082688;28;20085;-75
2023/09/10 03:10:37;;;;;;;22.20;18.20;;;16.10;99.90;;;;;;2081414;28;20097;-75
2023/09/10 03:11:38;;;;;;;23.17;18.40;;;16.00;99.90;;;;;;2075764;28;20110;-75
2023/09/10 03:12:39;;;;;;;22.42;17.92;;;16.00;99.90;;;;;;2085885;28;20036;-74
2023/09/10 03:13:40;;;;;;;22.90;17.50;;;16.00;99.90;;;;;;2086585;28;20119;-73
2023/09/10 03:14:40;;;;;;;21.77;17.58;;;16.00;99.90;;;;;;2077537;28;20059;-73
2023/09/10 03:15:41;;;;;;;21.38;17.90;;;16.00;99.90;;;;;;2095026;28;20036;-73
2023/09/10 03:16:42;;;;;;;21.90;17.38;;;16.00;99.90;;;;;;2095550;28;20023;-75
2023/09/10 03:17:45;;;;;;;22.10;17.77;;;16.00;99.90;;;;;;2087723;28;20021;-74
2023/09/10 03:18:46;;;;;;;21.25;17.75;;;16.00;99.90;;;;;;2089200;28;20231;-73
2023/09/10 03:19:47;;;;;;;20.70;17.95;;;16.00;99.90;;;;;;2086566;28;20032;-73
2023/09/10 03:20:49;;;;;;;21.23;17.88;;;16.00;99.90;;;;;;2083437;28;20047;-75
2023/09/10 03:21:51;;;;;;;24.52;18.13;;;16.00;99.90;;;;;;2088607;28;20103;-74
2023/09/10 03:22:57;;;;;;;21.83;17.75;;;16.00;99.90;;;;;;2082582;28;20147;-74
2023/09/10 03:23:58;;;;;;;22.65;18.00;;;16.00;99.90;;;;;;2087237;28;20472;-74
2023/09/10 03:25:00;;;;;;;21.67;17.35;;;16.00;99.90;;;;;;2086230;28;20053;-74
2023/09/10 03:26:01;;;;;;;21.15;17.83;;;16.00;99.90;;;;;;2082294;28;20024;-74
2023/09/10 03:27:03;;;;;;;19.65;17.45;;;16.00;99.90;;;;;;2091333;28;20064;-74
2023/09/10 03:28:05;;;;;;;21.13;17.90;;;15.90;99.90;;;;;;2085033;28;20033;-74
2023/09/10 03:29:05;;;;;;;20.20;17.55;;;16.00;99.90;;;;;;2084206;28;20121;-76
2023/09/10 03:30:07;;;;;;;20.45;17.73;;;15.90;99.90;;;;;;2096889;28;20024;-73
2023/09/10 03:31:07;;;;;;;21.95;18.13;;;15.90;99.90;;;;;;2085655;28;20040;-76
2023/09/10 03:32:08;;;;;;;25.75;18.42;;;15.90;99.90;;;;;;2089487;28;20028;-73
2023/09/10 03:33:10;;;;;;;22.75;18.13;;;15.90;99.90;;;;;;2082969;28;20048;-73
2023/09/10 03:34:11;;;;;;;20.75;18.25;;;15.90;99.90;;;;;;2086857;28;20074;-74
2023/09/10 03:35:12;;;;;;;20.85;18.13;;;15.90;99.90;;;;;;2091527;28;20043;-74
2023/09/10 03:36:13;;;;;;;20.35;17.60;;;15.90;99.90;;;;;;2086949;28;20037;-73
2023/09/10 03:37:13;;;;;;;21.27;17.42;;;15.90;99.90;;;;;;2090984;28;20044;-73
2023/09/10 03:38:14;;;;;;;21.25;17.77;;;15.90;99.90;;;;;;2090959;28;20024;-74
2023/09/10 03:39:15;;;;;;;21.67;17.67;;;15.80;99.90;;;;;;2087117;28;20112;-74
2023/09/10 03:40:15;;;;;;;20.02;17.85;;;15.80;99.90;;;;;;2082100;28;20040;-73
2023/09/10 03:41:16;;;;;;;20.98;18.27;;;15.80;99.90;;;;;;2074452;28;20037;-73
2023/09/10 03:42:17;;;;;;;23.23;17.95;;;15.80;99.90;;;;;;2079556;28;20036;-74
2023/09/10 03:43:17;;;;;;;20.75;17.73;;;15.80;99.90;;;;;;2086428;28;20051;-73
2023/09/10 03:44:19;;;;;;;22.10;18.23;;;15.80;99.90;;;;;;2093904;28;20024;-74
2023/09/10 03:45:20;;;;;;;20.77;17.70;;;15.80;99.90;;;;;;2084452;28;20617;-74
2023/09/10 03:46:21;;;;;;;21.13;18.58;;;15.80;99.90;;;;;;2089025;28;20036;-74
2023/09/10 03:47:21;;;;;;;22.10;18.20;;;15.80;99.90;;;;;;2082015;28;20495;-74
2023/09/10 03:48:22;;;;;;;24.13;18.35;;;15.80;99.90;;;;;;2076113;28;20038;-74
2023/09/10 03:49:22;;;;;;;21.50;17.67;;;15.80;99.90;;;;;;2093250;28;20048;-74
2023/09/10 03:50:23;;;;;;;25.13;18.15;;;15.80;99.90;;;;;;2095253;28;20487;-74
2023/09/10 03:51:26;;;;;;;22.23;17.80;;;15.80;99.90;;;;;;2090330;28;20475;-75
2023/09/10 03:52:27;;;;;;;22.08;18.15;;;15.80;99.90;;;;;;2082652;28;20033;-75
2023/09/10 03:53:27;;;;;;;20.85;17.27;;;15.80;99.90;;;;;;2090514;28;20028;-75
2023/09/10 03:54:28;;;;;;;23.85;17.98;;;15.80;99.90;;;;;;2083220;28;20029;-75
2023/09/10 03:55:29;;;;;;;20.30;17.23;;;15.80;99.90;;;;;;2083438;28;20381;-75
2023/09/10 03:56:29;;;;;;;20.55;17.70;;;15.80;99.90;;;;;;2083209;28;20502;-75
2023/09/10 03:57:31;;;;;;;20.48;17.05;;;15.80;99.90;;;;;;2087887;28;20016;-75
2023/09/10 03:58:31;;;;;;;22.73;17.83;;;15.80;99.90;;;;;;2084543;28;20093;-75
2023/09/10 03:59:32;;;;;;;20.48;17.58;;;15.80;99.90;;;;;;2082671;28;20025;-76
2023/09/10 04:00:33;;;;;;;21.02;17.00;;;15.70;99.90;;;;;;2085072;28;20616;-76
2023/09/10 04:01:35;;;;;;;20.65;17.35;;;15.70;99.90;;;;;;2093768;28;20613;-74
2023/09/10 04:02:35;;;;;;;20.52;16.92;;;15.70;99.90;;;;;;2085041;28;20032;-74
2023/09/10 04:03:36;;;;;;;21.15;16.65;;;15.70;99.90;;;;;;2082591;28;20528;-74
2023/09/10 04:04:37;;;;;;;22.45;17.40;;;15.70;99.90;;;;;;2074291;28;20052;-74
2023/09/10 04:05:38;;;;;;;19.50;16.52;;;15.70;99.90;;;;;;2074312;28;20042;-74
2023/09/10 04:06:38;;;;;;;18.88;16.48;;;15.70;99.90;;;;;;2093974;28;20085;-73
2023/09/10 04:07:39;;;;;;;19.48;17.30;;;15.70;99.90;;;;;;2090728;28;20029;-74
2023/09/10 04:08:40;;;;;;;20.95;17.10;;;15.70;99.90;;;;;;2085931;28;20119;-74
2023/09/10 04:09:41;;;;;;;21.00;17.30;;;15.70;99.90;;;;;;2086539;28;20026;-74
2023/09/10 04:10:42;;;;;;;20.02;17.23;;;15.70;99.90;;;;;;2078663;28;20125;-74
2023/09/10 04:11:42;;;;;;;21.05;18.20;;;15.70;99.90;;;;;;2078185;28;20103;-74
2023/09/10 04:12:43;;;;;;;20.15;17.63;;;15.70;99.90;;;;;;2086203;28;20108;-74
2023/09/10 04:13:44;;;;;;;20.20;17.95;;;15.70;99.90;;;;;;2093898;28;20044;-74
2023/09/10 04:14:44;;;;;;;20.77;17.88;;;15.60;99.90;;;;;;2086747;28;20076;-73
2023/09/10 04:15:45;;;;;;;23.15;18.08;;;15.60;99.90;;;;;;2094542;28;20088;-74
2023/09/10 04:16:46;;;;;;;21.30;17.77;;;15.70;99.90;;;;;;2086786;28;20096;-73
2023/09/10 04:17:47;;;;;;;23.00;18.50;;;15.70;99.90;;;;;;2087186;28;20025;-75
2023/09/10 04:18:47;;;;;;;22.85;18.27;;;15.70;99.90;;;;;;2093418;28;20050;-74
2023/09/10 04:19:48;;;;;;;21.73;18.42;;;15.60;99.90;;;;;;2090694;28;20136;-73
2023/09/10 04:20:49;;;;;;;21.98;18.40;;;15.70;99.90;;;;;;2098027;28;20028;-74
2023/09/10 04:21:50;;;;;;;21.38;18.17;;;15.60;99.90;;;;;;2082487;28;20037;-74
2023/09/10 04:22:50;;;;;;;20.85;17.73;;;15.70;99.90;;;;;;2075436;28;20029;-74
2023/09/10 04:23:51;;;;;;;21.45;17.73;;;15.60;99.90;;;;;;2087669;28;20043;-74
2023/09/10 04:24:52;;;;;;;21.83;18.05;;;15.70;99.90;;;;;;2091342;28;20398;-75
2023/09/10 04:25:53;;;;;;;19.92;17.70;;;15.70;99.90;;;;;;2083587;28;20021;-73
2023/09/10 04:26:54;;;;;;;19.90;17.70;;;15.70;99.90;;;;;;2071829;28;20046;-74
2023/09/10 04:27:54;;;;;;;21.30;17.67;;;15.60;99.90;;;;;;2075477;28;20021;-75
2023/09/10 04:28:55;;;;;;;20.73;17.33;;;15.60;99.90;;;;;;2074341;28;20048;-74
2023/09/10 04:29:57;;;;;;;21.02;17.77;;;15.60;99.90;;;;;;2091014;28;20048;-75
2023/09/10 04:30:58;;;;;;;20.45;17.20;;;15.60;99.90;;;;;;2080775;28;20094;-75
2023/09/10 04:31:58;;;;;;;20.77;17.25;;;15.60;99.90;;;;;;2059494;28;20025;-75
2023/09/10 04:32:59;;;;;;;18.98;16.92;;;15.60;99.90;;;;;;2060478;28;20047;-75
2023/09/10 04:34:00;;;;;;;19.00;16.92;;;15.60;99.90;;;;;;2061891;28;20364;-75
2023/09/10 04:35:03;;;;;;;18.75;16.75;;;15.50;99.90;;;;;;2071652;28;20025;-75
2023/09/10 04:36:04;;;;;;;20.50;17.90;;;15.50;99.90;;;;;;2082912;28;20037;-74
2023/09/10 04:37:04;;;;;;;21.90;17.83;;;15.50;99.90;;;;;;2082737;28;20131;-73
2023/09/10 04:38:05;;;;;;;21.80;17.40;;;15.50;99.90;;;;;;2080484;28;20037;-76
2023/09/10 04:39:08;;;;;;;19.67;17.40;;;15.50;99.90;;;;;;2083305;28;20041;-74
2023/09/10 04:40:10;;;;;;;20.27;16.85;;;15.50;99.90;;;;;;2094494;28;20123;-74
2023/09/10 04:41:11;;;;;;;21.17;17.02;;;15.50;99.90;;;;;;2101649;28;20077;-74
2023/09/10 04:42:11;;;;;;;18.50;16.25;;;15.50;99.90;;;;;;2083705;28;20162;-74
2023/09/10 04:43:12;;;;;;;20.25;16.98;;;15.50;99.90;;;;;;2090493;28;20508;-74
2023/09/10 04:44:13;;;;;;;19.73;16.50;;;15.50;99.90;;;;;;2094466;28;20027;-73
2023/09/10 04:45:14;;;;;;;19.77;16.80;;;15.50;99.90;;;;;;2077359;28;20033;-74
2023/09/10 04:46:14;;;;;;;20.73;17.17;;;15.50;99.90;;;;;;2082706;28;20025;-76
2023/09/10 04:47:15;;;;;;;19.40;16.42;;;15.50;99.90;;;;;;2086559;28;20055;-70
2023/09/10 04:48:17;;;;;;;20.10;16.67;;;15.50;99.90;;;;;;2090586;28;20486;-73
2023/09/10 04:49:18;;;;;;;19.70;16.70;;;15.50;99.90;;;;;;2094990;28;20510;-74
2023/09/10 04:50:19;;;;;;;21.33;16.42;;;15.50;99.90;;;;;;2094159;28;20061;-73
2023/09/10 04:51:20;;;;;;;18.75;16.20;;;15.50;99.90;;;;;;2075698;28;20152;-74
2023/09/10 04:52:20;;;;;;;19.88;16.75;;;15.50;99.90;;;;;;2086143;28;20025;-74
2023/09/10 04:53:21;;;;;;;20.63;16.00;;;15.50;99.90;;;;;;2089673;28;20059;-74
2023/09/10 04:54:21;;;;;;;22.05;16.95;;;15.50;99.90;;;;;;2083304;28;20025;-74
2023/09/10 04:55:22;;;;;;;19.35;15.95;;;15.50;99.90;;;;;;2091982;28;20107;-74
2023/09/10 04:56:23;;;;;;;20.30;16.70;;;15.60;99.90;;;;;;2090191;28;20025;-74
2023/09/10 04:57:23;;;;;;;20.52;17.65;;;15.50;99.90;;;;;;2076197;28;20021;-72
2023/09/10 04:58:24;;;;;;;18.83;16.13;;;15.50;99.90;;;;;;2076468;28;20120;-75
2023/09/10 04:59:25;;;;;;;19.52;16.42;;;15.50;99.90;;;;;;2091933;28;20074;-74
2023/09/10 05:00:26;;;;;;;23.58;17.10;;;15.50;99.90;;;;;;2077676;28;20030;-74
2023/09/10 05:01:26;;;;;;;18.98;15.98;;;15.50;99.90;;;;;;2081732;28;20056;-76
2023/09/10 05:02:27;;;;;;;18.42;16.15;;;15.50;99.90;;;;;;2076068;28;20052;-73
2023/09/10 05:03:28;;;;;;;19.80;16.63;;;15.60;99.90;;;;;;2087326;28;20063;-74
2023/09/10 05:04:28;;;;;;;19.10;16.25;;;15.60;99.90;;;;;;2089472;28;20020;-74
2023/09/10 05:05:29;;;;;;;20.88;15.93;;;15.60;99.90;;;;;;2093644;28;20024;-73
2023/09/10 05:06:30;;;;;;;20.52;16.63;;;15.60;99.90;;;;;;2086628;28;20045;-74
2023/09/10 05:07:30;;;;;;;18.67;15.85;;;15.60;99.90;;;;;;2100147;28;20449;-80
2023/09/10 05:08:31;;;;;;;20.70;16.45;;;15.70;99.90;;;;;;2095919;28;20063;-81
2023/09/10 05:09:32;;;;;;;19.92;15.65;;;15.70;99.90;;;;;;2095716;28;20093;-81
2023/09/10 05:10:32;;;;;;;19.05;15.98;;;15.70;99.90;;;;;;2094277;28;20017;-81
2023/09/10 05:11:33;;;;;;;18.52;16.17;;;15.80;99.90;;;;;;2094134;28;20036;-81
2023/09/10 05:12:34;;;;;;;21.30;16.20;;;15.90;99.90;;;;;;2100343;28;20063;-79
2023/09/10 05:13:35;;;;;;;21.60;15.98;;;16.00;99.90;;;;;;2101860;28;20096;-80
2023/09/10 05:14:36;;;;;;;19.05;15.18;;;16.10;99.90;;;;;;2090631;28;20033;-80